sensor_id;sensor_type;location;lat;lon;timestamp;P1;durP1;ratioP1;P2;durP2;ratioP2
549;SDS011;20066;48.764;9.176;2022-12-18T00:01:24;84.70;;;40.42;;
549;SDS011;20066;48.764;9.176;2022-12-18T00:03:55;92.22;;;39.92;;
549;SDS011;20066;48.764;9.176;2022-12-18T00:06:25;88.72;;;39.75;;
549;SDS011;20066;48.764;9.176;2022-12-18T00:08:55;88.70;;;38.25;;
549;SDS011;20066;48.764;9.176;2022-12-18T00:11:25;87.18;;;40.20;;
549;SDS011;20066;48.764;9.176;2022-12-18T00:13:55;100.93;;;41.88;;
549;SDS011;20066;48.764;9.176;2022-12-18T00:16:25;87.00;;;38.13;;
549;SDS011;20066;48.764;9.176;2022-12-18T00:18:55;90.45;;;41.85;;
549;SDS011;20066;48.764;9.176;2022-12-18T00:21:25;86.25;;;38.70;;
549;SDS011;20066;48.764;9.176;2022-12-18T00:23:54;80.85;;;38.95;;
549;SDS011;20066;48.764;9.176;2022-12-18T00:26:22;96.82;;;38.50;;
549;SDS011;20066;48.764;9.176;2022-12-18T00:28:51;86.90;;;37.22;;
549;SDS011;20066;48.764;9.176;2022-12-18T00:31:22;81.22;;;37.92;;
549;SDS011;20066;48.764;9.176;2022-12-18T00:33:53;95.40;;;38.42;;
549;SDS011;20066;48.764;9.176;2022-12-18T00:36:21;82.30;;;36.05;;
549;SDS011;20066;48.764;9.176;2022-12-18T00:39:00;89.28;;;39.20;;
549;SDS011;20066;48.764;9.176;2022-12-18T00:41:30;90.63;;;38.83;;
549;SDS011;20066;48.764;9.176;2022-12-18T00:44:17;84.88;;;37.90;;
549;SDS011;20066;48.764;9.176;2022-12-18T00:46:46;91.00;;;38.72;;
549;SDS011;20066;48.764;9.176;2022-12-18T00:49:15;74.93;;;34.75;;
549;SDS011;20066;48.764;9.176;2022-12-18T00:51:46;83.97;;;37.50;;
549;SDS011;20066;48.764;9.176;2022-12-18T00:54:15;79.00;;;37.85;;
549;SDS011;20066;48.764;9.176;2022-12-18T00:56:43;88.50;;;39.50;;
549;SDS011;20066;48.764;9.176;2022-12-18T00:59:15;83.63;;;37.17;;
549;SDS011;20066;48.764;9.176;2022-12-18T01:01:44;81.43;;;36.88;;
549;SDS011;20066;48.764;9.176;2022-12-18T01:04:12;86.28;;;37.40;;
549;SDS011;20066;48.764;9.176;2022-12-18T01:06:41;76.28;;;34.08;;
549;SDS011;20066;48.764;9.176;2022-12-18T01:09:11;88.28;;;40.90;;
549;SDS011;20066;48.764;9.176;2022-12-18T01:11:39;79.95;;;38.20;;
549;SDS011;20066;48.764;9.176;2022-12-18T01:14:07;82.03;;;36.90;;
549;SDS011;20066;48.764;9.176;2022-12-18T01:16:35;82.57;;;35.75;;
549;SDS011;20066;48.764;9.176;2022-12-18T01:19:02;84.28;;;37.67;;
549;SDS011;20066;48.764;9.176;2022-12-18T01:21:30;76.55;;;32.78;;
549;SDS011;20066;48.764;9.176;2022-12-18T01:23:58;79.25;;;35.97;;
549;SDS011;20066;48.764;9.176;2022-12-18T01:26:27;85.60;;;37.50;;
549;SDS011;20066;48.764;9.176;2022-12-18T01:28:56;86.50;;;35.35;;
549;SDS011;20066;48.764;9.176;2022-12-18T01:31:25;80.40;;;35.08;;
549;SDS011;20066;48.764;9.176;2022-12-18T01:33:54;79.85;;;36.00;;
549;SDS011;20066;48.764;9.176;2022-12-18T01:36:23;80.55;;;36.25;;
549;SDS011;20066;48.764;9.176;2022-12-18T01:38:52;80.88;;;35.33;;
549;SDS011;20066;48.764;9.176;2022-12-18T01:41:22;74.93;;;35.80;;
549;SDS011;20066;48.764;9.176;2022-12-18T01:43:53;86.20;;;35.80;;
549;SDS011;20066;48.764;9.176;2022-12-18T01:46:25;80.20;;;34.97;;
549;SDS011;20066;48.764;9.176;2022-12-18T01:48:55;78.25;;;35.08;;
549;SDS011;20066;48.764;9.176;2022-12-18T01:51:25;82.68;;;37.47;;
549;SDS011;20066;48.764;9.176;2022-12-18T01:53:54;83.93;;;36.28;;
549;SDS011;20066;48.764;9.176;2022-12-18T01:56:24;80.93;;;35.65;;
549;SDS011;20066;48.764;9.176;2022-12-18T01:58:55;86.88;;;38.28;;
549;SDS011;20066;48.764;9.176;2022-12-18T02:01:28;80.68;;;35.65;;
549;SDS011;20066;48.764;9.176;2022-12-18T02:04:10;79.28;;;36.47;;
549;SDS011;20066;48.764;9.176;2022-12-18T02:06:47;74.50;;;33.58;;
549;SDS011;20066;48.764;9.176;2022-12-18T02:09:23;83.35;;;34.92;;
549;SDS011;20066;48.764;9.176;2022-12-18T02:11:59;81.25;;;34.85;;
549;SDS011;20066;48.764;9.176;2022-12-18T02:14:36;83.03;;;35.65;;
549;SDS011;20066;48.764;9.176;2022-12-18T02:17:09;84.70;;;35.30;;
549;SDS011;20066;48.764;9.176;2022-12-18T02:19:45;73.45;;;34.05;;
549;SDS011;20066;48.764;9.176;2022-12-18T02:22:27;78.50;;;34.90;;
549;SDS011;20066;48.764;9.176;2022-12-18T02:25:05;81.82;;;34.55;;
549;SDS011;20066;48.764;9.176;2022-12-18T02:27:45;80.90;;;34.45;;
549;SDS011;20066;48.764;9.176;2022-12-18T02:30:16;73.57;;;34.38;;
549;SDS011;20066;48.764;9.176;2022-12-18T02:32:46;75.32;;;34.33;;
549;SDS011;20066;48.764;9.176;2022-12-18T02:35:17;71.18;;;33.53;;
549;SDS011;20066;48.764;9.176;2022-12-18T02:37:49;83.03;;;34.88;;
549;SDS011;20066;48.764;9.176;2022-12-18T02:40:18;75.45;;;33.75;;
549;SDS011;20066;48.764;9.176;2022-12-18T02:42:50;69.75;;;32.30;;
549;SDS011;20066;48.764;9.176;2022-12-18T02:45:17;75.03;;;32.55;;
549;SDS011;20066;48.764;9.176;2022-12-18T02:47:46;74.93;;;31.73;;
549;SDS011;20066;48.764;9.176;2022-12-18T02:50:16;65.05;;;30.60;;
549;SDS011;20066;48.764;9.176;2022-12-18T02:52:53;81.05;;;31.65;;
549;SDS011;20066;48.764;9.176;2022-12-18T02:55:33;83.38;;;33.78;;
549;SDS011;20066;48.764;9.176;2022-12-18T02:58:14;68.28;;;30.63;;
549;SDS011;20066;48.764;9.176;2022-12-18T03:00:47;74.13;;;33.03;;
549;SDS011;20066;48.764;9.176;2022-12-18T03:03:26;73.50;;;31.38;;
549;SDS011;20066;48.764;9.176;2022-12-18T03:05:57;73.97;;;32.88;;
549;SDS011;20066;48.764;9.176;2022-12-18T03:08:29;63.17;;;30.38;;
549;SDS011;20066;48.764;9.176;2022-12-18T03:11:01;72.35;;;32.88;;
549;SDS011;20066;48.764;9.176;2022-12-18T03:13:33;74.80;;;30.95;;
549;SDS011;20066;48.764;9.176;2022-12-18T03:16:06;76.97;;;33.17;;
549;SDS011;20066;48.764;9.176;2022-12-18T03:18:37;67.93;;;33.25;;
549;SDS011;20066;48.764;9.176;2022-12-18T03:21:09;72.68;;;33.70;;
549;SDS011;20066;48.764;9.176;2022-12-18T03:23:42;79.25;;;35.47;;
549;SDS011;20066;48.764;9.176;2022-12-18T03:26:15;73.68;;;33.00;;
549;SDS011;20066;48.764;9.176;2022-12-18T03:28:47;67.55;;;32.08;;
549;SDS011;20066;48.764;9.176;2022-12-18T03:31:18;70.97;;;28.27;;
549;SDS011;20066;48.764;9.176;2022-12-18T03:33:50;66.53;;;30.60;;
549;SDS011;20066;48.764;9.176;2022-12-18T03:36:19;62.83;;;27.90;;
549;SDS011;20066;48.764;9.176;2022-12-18T03:38:47;67.43;;;27.92;;
549;SDS011;20066;48.764;9.176;2022-12-18T03:41:16;58.97;;;27.00;;
549;SDS011;20066;48.764;9.176;2022-12-18T03:43:52;65.68;;;27.33;;
549;SDS011;20066;48.764;9.176;2022-12-18T03:46:25;59.92;;;26.10;;
549;SDS011;20066;48.764;9.176;2022-12-18T03:48:59;66.63;;;26.15;;
549;SDS011;20066;48.764;9.176;2022-12-18T03:51:37;68.57;;;26.77;;
549;SDS011;20066;48.764;9.176;2022-12-18T03:54:09;59.88;;;24.55;;
549;SDS011;20066;48.764;9.176;2022-12-18T03:56:43;58.55;;;25.48;;
549;SDS011;20066;48.764;9.176;2022-12-18T03:59:16;65.30;;;27.20;;
549;SDS011;20066;48.764;9.176;2022-12-18T04:01:47;58.90;;;25.10;;
549;SDS011;20066;48.764;9.176;2022-12-18T04:04:18;60.13;;;24.90;;
549;SDS011;20066;48.764;9.176;2022-12-18T04:06:47;68.45;;;27.10;;
549;SDS011;20066;48.764;9.176;2022-12-18T04:09:17;61.55;;;26.40;;
549;SDS011;20066;48.764;9.176;2022-12-18T04:11:45;68.80;;;26.13;;
549;SDS011;20066;48.764;9.176;2022-12-18T04:14:14;54.95;;;25.80;;
549;SDS011;20066;48.764;9.176;2022-12-18T04:16:45;62.50;;;27.15;;
549;SDS011;20066;48.764;9.176;2022-12-18T04:19:12;65.50;;;26.23;;
549;SDS011;20066;48.764;9.176;2022-12-18T04:21:40;57.35;;;25.95;;
549;SDS011;20066;48.764;9.176;2022-12-18T04:24:08;64.60;;;25.60;;
549;SDS011;20066;48.764;9.176;2022-12-18T04:26:36;65.63;;;26.85;;
549;SDS011;20066;48.764;9.176;2022-12-18T04:29:04;69.13;;;26.85;;
549;SDS011;20066;48.764;9.176;2022-12-18T04:31:32;69.43;;;31.25;;
549;SDS011;20066;48.764;9.176;2022-12-18T04:34:01;66.93;;;28.27;;
549;SDS011;20066;48.764;9.176;2022-12-18T04:36:29;64.43;;;27.05;;
549;SDS011;20066;48.764;9.176;2022-12-18T04:38:57;68.10;;;27.80;;
549;SDS011;20066;48.764;9.176;2022-12-18T04:41:25;71.22;;;25.40;;
549;SDS011;20066;48.764;9.176;2022-12-18T04:43:53;75.57;;;29.13;;
549;SDS011;20066;48.764;9.176;2022-12-18T04:46:21;82.25;;;28.50;;
549;SDS011;20066;48.764;9.176;2022-12-18T04:48:48;66.93;;;25.65;;
549;SDS011;20066;48.764;9.176;2022-12-18T04:51:17;61.17;;;25.35;;
549;SDS011;20066;48.764;9.176;2022-12-18T04:53:51;62.55;;;27.38;;
549;SDS011;20066;48.764;9.176;2022-12-18T04:56:19;61.63;;;24.83;;
549;SDS011;20066;48.764;9.176;2022-12-18T04:58:47;64.30;;;26.80;;
549;SDS011;20066;48.764;9.176;2022-12-18T05:01:15;67.80;;;26.80;;
549;SDS011;20066;48.764;9.176;2022-12-18T05:03:44;60.03;;;26.05;;
549;SDS011;20066;48.764;9.176;2022-12-18T05:06:12;68.30;;;26.98;;
549;SDS011;20066;48.764;9.176;2022-12-18T05:08:42;61.58;;;26.92;;
549;SDS011;20066;48.764;9.176;2022-12-18T05:11:12;66.45;;;29.45;;
549;SDS011;20066;48.764;9.176;2022-12-18T05:13:43;60.88;;;27.60;;
549;SDS011;20066;48.764;9.176;2022-12-18T05:16:11;62.60;;;27.73;;
549;SDS011;20066;48.764;9.176;2022-12-18T05:18:40;60.50;;;26.70;;
549;SDS011;20066;48.764;9.176;2022-12-18T05:21:08;57.38;;;26.90;;
549;SDS011;20066;48.764;9.176;2022-12-18T05:23:36;63.28;;;28.55;;
549;SDS011;20066;48.764;9.176;2022-12-18T05:26:06;62.17;;;28.52;;
549;SDS011;20066;48.764;9.176;2022-12-18T05:28:35;62.53;;;27.17;;
549;SDS011;20066;48.764;9.176;2022-12-18T05:31:03;58.15;;;27.30;;
549;SDS011;20066;48.764;9.176;2022-12-18T05:33:33;56.83;;;26.42;;
549;SDS011;20066;48.764;9.176;2022-12-18T05:36:02;67.65;;;27.25;;
549;SDS011;20066;48.764;9.176;2022-12-18T05:38:32;61.78;;;29.10;;
549;SDS011;20066;48.764;9.176;2022-12-18T05:41:01;62.55;;;29.00;;
549;SDS011;20066;48.764;9.176;2022-12-18T05:43:31;60.15;;;27.48;;
549;SDS011;20066;48.764;9.176;2022-12-18T05:46:02;66.75;;;27.42;;
549;SDS011;20066;48.764;9.176;2022-12-18T05:48:31;68.00;;;28.00;;
549;SDS011;20066;48.764;9.176;2022-12-18T05:51:03;60.22;;;28.17;;
549;SDS011;20066;48.764;9.176;2022-12-18T05:53:33;57.08;;;27.10;;
549;SDS011;20066;48.764;9.176;2022-12-18T05:56:01;62.08;;;27.05;;
549;SDS011;20066;48.764;9.176;2022-12-18T05:58:33;62.50;;;27.65;;
549;SDS011;20066;48.764;9.176;2022-12-18T06:01:06;65.00;;;29.35;;
549;SDS011;20066;48.764;9.176;2022-12-18T06:03:35;60.58;;;26.58;;
549;SDS011;20066;48.764;9.176;2022-12-18T06:06:03;62.55;;;28.73;;
549;SDS011;20066;48.764;9.176;2022-12-18T06:08:31;57.85;;;26.88;;
549;SDS011;20066;48.764;9.176;2022-12-18T06:10:59;63.80;;;28.02;;
549;SDS011;20066;48.764;9.176;2022-12-18T06:13:26;50.70;;;26.23;;
549;SDS011;20066;48.764;9.176;2022-12-18T06:15:55;58.47;;;26.98;;
549;SDS011;20066;48.764;9.176;2022-12-18T06:18:23;54.08;;;25.77;;
549;SDS011;20066;48.764;9.176;2022-12-18T06:20:54;67.47;;;28.10;;
549;SDS011;20066;48.764;9.176;2022-12-18T06:23:22;60.55;;;27.27;;
549;SDS011;20066;48.764;9.176;2022-12-18T06:25:50;69.00;;;27.73;;
549;SDS011;20066;48.764;9.176;2022-12-18T06:28:18;64.20;;;27.45;;
549;SDS011;20066;48.764;9.176;2022-12-18T06:30:46;55.92;;;26.75;;
549;SDS011;20066;48.764;9.176;2022-12-18T06:33:16;61.35;;;27.58;;
549;SDS011;20066;48.764;9.176;2022-12-18T06:35:44;58.85;;;26.88;;
549;SDS011;20066;48.764;9.176;2022-12-18T06:38:12;60.05;;;26.52;;
549;SDS011;20066;48.764;9.176;2022-12-18T06:40:40;60.75;;;26.95;;
549;SDS011;20066;48.764;9.176;2022-12-18T06:43:07;55.08;;;27.00;;
549;SDS011;20066;48.764;9.176;2022-12-18T06:45:35;58.65;;;25.83;;
549;SDS011;20066;48.764;9.176;2022-12-18T06:48:03;67.30;;;29.17;;
549;SDS011;20066;48.764;9.176;2022-12-18T06:50:32;63.65;;;26.88;;
549;SDS011;20066;48.764;9.176;2022-12-18T06:53:00;54.83;;;24.23;;
549;SDS011;20066;48.764;9.176;2022-12-18T06:55:27;62.17;;;27.65;;
549;SDS011;20066;48.764;9.176;2022-12-18T06:57:55;69.53;;;26.00;;
549;SDS011;20066;48.764;9.176;2022-12-18T07:00:23;62.50;;;28.05;;
549;SDS011;20066;48.764;9.176;2022-12-18T07:02:51;60.63;;;26.08;;
549;SDS011;20066;48.764;9.176;2022-12-18T07:05:19;55.92;;;26.70;;
549;SDS011;20066;48.764;9.176;2022-12-18T07:07:48;70.10;;;27.33;;
549;SDS011;20066;48.764;9.176;2022-12-18T07:10:16;64.85;;;27.58;;
549;SDS011;20066;48.764;9.176;2022-12-18T07:12:43;60.38;;;25.27;;
549;SDS011;20066;48.764;9.176;2022-12-18T07:15:11;58.30;;;24.17;;
549;SDS011;20066;48.764;9.176;2022-12-18T07:17:39;59.55;;;26.05;;
549;SDS011;20066;48.764;9.176;2022-12-18T07:20:07;61.90;;;27.77;;
549;SDS011;20066;48.764;9.176;2022-12-18T07:22:36;55.58;;;24.98;;
549;SDS011;20066;48.764;9.176;2022-12-18T07:25:06;56.72;;;24.52;;
549;SDS011;20066;48.764;9.176;2022-12-18T07:27:35;66.20;;;27.38;;
549;SDS011;20066;48.764;9.176;2022-12-18T07:30:03;56.97;;;26.35;;
549;SDS011;20066;48.764;9.176;2022-12-18T07:32:31;57.80;;;26.58;;
549;SDS011;20066;48.764;9.176;2022-12-18T07:34:59;56.58;;;25.45;;
549;SDS011;20066;48.764;9.176;2022-12-18T07:37:27;64.90;;;26.83;;
549;SDS011;20066;48.764;9.176;2022-12-18T07:39:54;55.55;;;24.60;;
549;SDS011;20066;48.764;9.176;2022-12-18T07:42:24;59.22;;;28.48;;
549;SDS011;20066;48.764;9.176;2022-12-18T07:44:58;60.20;;;25.23;;
549;SDS011;20066;48.764;9.176;2022-12-18T07:47:26;70.35;;;27.52;;
549;SDS011;20066;48.764;9.176;2022-12-18T07:49:54;65.70;;;28.67;;
549;SDS011;20066;48.764;9.176;2022-12-18T07:52:22;64.63;;;26.88;;
549;SDS011;20066;48.764;9.176;2022-12-18T07:54:51;68.70;;;27.60;;
549;SDS011;20066;48.764;9.176;2022-12-18T07:57:19;63.65;;;28.88;;
549;SDS011;20066;48.764;9.176;2022-12-18T08:00:09;60.25;;;24.90;;
549;SDS011;20066;48.764;9.176;2022-12-18T08:02:38;65.07;;;26.60;;
549;SDS011;20066;48.764;9.176;2022-12-18T08:05:07;54.97;;;24.42;;
549;SDS011;20066;48.764;9.176;2022-12-18T08:07:35;62.53;;;27.50;;
549;SDS011;20066;48.764;9.176;2022-12-18T08:10:03;61.83;;;27.77;;
549;SDS011;20066;48.764;9.176;2022-12-18T08:12:32;58.50;;;26.60;;
549;SDS011;20066;48.764;9.176;2022-12-18T08:15:00;59.58;;;27.38;;
549;SDS011;20066;48.764;9.176;2022-12-18T08:17:29;64.55;;;27.73;;
549;SDS011;20066;48.764;9.176;2022-12-18T08:19:57;59.38;;;26.30;;
549;SDS011;20066;48.764;9.176;2022-12-18T08:22:25;60.50;;;26.08;;
549;SDS011;20066;48.764;9.176;2022-12-18T08:24:53;56.58;;;27.52;;
549;SDS011;20066;48.764;9.176;2022-12-18T08:27:20;55.00;;;26.80;;
549;SDS011;20066;48.764;9.176;2022-12-18T08:29:55;60.13;;;26.50;;
549;SDS011;20066;48.764;9.176;2022-12-18T08:32:23;63.65;;;25.70;;
549;SDS011;20066;48.764;9.176;2022-12-18T08:34:53;60.85;;;28.95;;
549;SDS011;20066;48.764;9.176;2022-12-18T08:37:21;66.53;;;30.25;;
549;SDS011;20066;48.764;9.176;2022-12-18T08:39:48;60.65;;;26.75;;
549;SDS011;20066;48.764;9.176;2022-12-18T08:42:16;63.58;;;28.65;;
549;SDS011;20066;48.764;9.176;2022-12-18T08:45:01;58.53;;;26.92;;
549;SDS011;20066;48.764;9.176;2022-12-18T08:47:29;58.90;;;28.20;;
549;SDS011;20066;48.764;9.176;2022-12-18T08:49:59;57.63;;;27.75;;
549;SDS011;20066;48.764;9.176;2022-12-18T08:52:26;58.08;;;27.30;;
549;SDS011;20066;48.764;9.176;2022-12-18T08:54:54;62.08;;;28.40;;
549;SDS011;20066;48.764;9.176;2022-12-18T08:57:22;61.80;;;28.80;;
549;SDS011;20066;48.764;9.176;2022-12-18T08:59:49;66.57;;;32.08;;
549;SDS011;20066;48.764;9.176;2022-12-18T09:02:17;62.38;;;28.42;;
549;SDS011;20066;48.764;9.176;2022-12-18T09:04:46;61.80;;;29.45;;
549;SDS011;20066;48.764;9.176;2022-12-18T09:07:23;64.35;;;28.77;;
549;SDS011;20066;48.764;9.176;2022-12-18T09:09:51;65.57;;;28.00;;
549;SDS011;20066;48.764;9.176;2022-12-18T09:12:19;59.65;;;28.17;;
549;SDS011;20066;48.764;9.176;2022-12-18T09:14:46;64.43;;;29.77;;
549;SDS011;20066;48.764;9.176;2022-12-18T09:17:14;63.20;;;30.65;;
549;SDS011;20066;48.764;9.176;2022-12-18T09:19:42;60.75;;;27.98;;
549;SDS011;20066;48.764;9.176;2022-12-18T09:22:10;65.38;;;27.83;;
549;SDS011;20066;48.764;9.176;2022-12-18T09:24:39;63.10;;;28.02;;
549;SDS011;20066;48.764;9.176;2022-12-18T09:27:07;61.00;;;27.85;;
549;SDS011;20066;48.764;9.176;2022-12-18T09:29:35;64.75;;;28.77;;
549;SDS011;20066;48.764;9.176;2022-12-18T09:32:03;63.55;;;29.75;;
549;SDS011;20066;48.764;9.176;2022-12-18T09:34:31;69.35;;;30.25;;
549;SDS011;20066;48.764;9.176;2022-12-18T09:36:59;67.03;;;30.42;;
549;SDS011;20066;48.764;9.176;2022-12-18T09:39:26;72.30;;;31.13;;
549;SDS011;20066;48.764;9.176;2022-12-18T09:41:56;68.10;;;29.80;;
549;SDS011;20066;48.764;9.176;2022-12-18T09:44:26;65.70;;;29.10;;
549;SDS011;20066;48.764;9.176;2022-12-18T09:47:02;75.25;;;32.63;;
549;SDS011;20066;48.764;9.176;2022-12-18T09:49:36;67.72;;;31.30;;
549;SDS011;20066;48.764;9.176;2022-12-18T09:52:09;64.32;;;30.17;;
549;SDS011;20066;48.764;9.176;2022-12-18T09:54:42;61.25;;;27.20;;
549;SDS011;20066;48.764;9.176;2022-12-18T09:57:15;66.32;;;29.90;;
549;SDS011;20066;48.764;9.176;2022-12-18T09:59:46;60.88;;;26.92;;
549;SDS011;20066;48.764;9.176;2022-12-18T10:02:20;65.10;;;27.70;;
549;SDS011;20066;48.764;9.176;2022-12-18T10:04:53;65.68;;;29.27;;
549;SDS011;20066;48.764;9.176;2022-12-18T10:07:30;60.55;;;26.77;;
549;SDS011;20066;48.764;9.176;2022-12-18T10:10:06;53.30;;;25.75;;
549;SDS011;20066;48.764;9.176;2022-12-18T10:12:44;60.33;;;27.13;;
549;SDS011;20066;48.764;9.176;2022-12-18T10:15:29;57.45;;;25.00;;
549;SDS011;20066;48.764;9.176;2022-12-18T10:18:04;59.10;;;22.95;;
549;SDS011;20066;48.764;9.176;2022-12-18T10:20:47;56.70;;;23.08;;
549;SDS011;20066;48.764;9.176;2022-12-18T10:23:19;59.60;;;24.15;;
549;SDS011;20066;48.764;9.176;2022-12-18T10:25:53;57.63;;;23.08;;
549;SDS011;20066;48.764;9.176;2022-12-18T10:28:30;50.22;;;21.67;;
549;SDS011;20066;48.764;9.176;2022-12-18T10:30:59;52.47;;;22.23;;
549;SDS011;20066;48.764;9.176;2022-12-18T10:33:28;54.13;;;21.58;;
549;SDS011;20066;48.764;9.176;2022-12-18T10:35:58;51.60;;;21.50;;
549;SDS011;20066;48.764;9.176;2022-12-18T10:38:26;53.17;;;20.33;;
549;SDS011;20066;48.764;9.176;2022-12-18T10:40:56;53.90;;;22.10;;
549;SDS011;20066;48.764;9.176;2022-12-18T10:43:26;49.42;;;19.90;;
549;SDS011;20066;48.764;9.176;2022-12-18T10:48:53;47.03;;;19.05;;
549;SDS011;20066;48.764;9.176;2022-12-18T10:51:23;46.70;;;19.80;;
549;SDS011;20066;48.764;9.176;2022-12-18T10:53:57;48.58;;;19.80;;
549;SDS011;20066;48.764;9.176;2022-12-18T10:56:30;47.13;;;18.33;;
549;SDS011;20066;48.764;9.176;2022-12-18T10:59:01;44.38;;;20.20;;
549;SDS011;20066;48.764;9.176;2022-12-18T11:01:44;52.63;;;19.65;;
549;SDS011;20066;48.764;9.176;2022-12-18T11:04:16;49.13;;;18.70;;
549;SDS011;20066;48.764;9.176;2022-12-18T11:06:53;53.38;;;18.80;;
549;SDS011;20066;48.764;9.176;2022-12-18T11:09:23;46.70;;;19.23;;
549;SDS011;20066;48.764;9.176;2022-12-18T11:11:52;43.67;;;18.38;;
549;SDS011;20066;48.764;9.176;2022-12-18T11:14:22;43.47;;;18.20;;
549;SDS011;20066;48.764;9.176;2022-12-18T11:16:53;48.25;;;19.70;;
549;SDS011;20066;48.764;9.176;2022-12-18T11:19:42;40.50;;;17.83;;
549;SDS011;20066;48.764;9.176;2022-12-18T11:22:18;44.58;;;17.65;;
549;SDS011;20066;48.764;9.176;2022-12-18T11:24:52;47.20;;;19.50;;
549;SDS011;20066;48.764;9.176;2022-12-18T11:27:46;44.03;;;18.75;;
549;SDS011;20066;48.764;9.176;2022-12-18T11:30:21;46.58;;;19.85;;
549;SDS011;20066;48.764;9.176;2022-12-18T11:32:52;50.80;;;20.55;;
549;SDS011;20066;48.764;9.176;2022-12-18T11:35:25;47.58;;;20.45;;
549;SDS011;20066;48.764;9.176;2022-12-18T11:38:04;44.65;;;19.90;;
549;SDS011;20066;48.764;9.176;2022-12-18T11:40:51;52.97;;;22.75;;
549;SDS011;20066;48.764;9.176;2022-12-18T11:43:26;59.97;;;24.55;;
549;SDS011;20066;48.764;9.176;2022-12-18T11:45:59;60.13;;;25.83;;
549;SDS011;20066;48.764;9.176;2022-12-18T11:48:34;52.90;;;23.20;;
549;SDS011;20066;48.764;9.176;2022-12-18T11:51:09;52.55;;;22.95;;
549;SDS011;20066;48.764;9.176;2022-12-18T11:53:42;58.03;;;23.40;;
549;SDS011;20066;48.764;9.176;2022-12-18T11:56:14;49.67;;;23.60;;
549;SDS011;20066;48.764;9.176;2022-12-18T11:58:57;53.53;;;22.15;;
549;SDS011;20066;48.764;9.176;2022-12-18T12:01:39;55.85;;;24.20;;
549;SDS011;20066;48.764;9.176;2022-12-18T12:04:30;57.55;;;21.88;;
549;SDS011;20066;48.764;9.176;2022-12-18T12:07:12;55.88;;;22.48;;
549;SDS011;20066;48.764;9.176;2022-12-18T12:09:56;56.70;;;24.63;;
549;SDS011;20066;48.764;9.176;2022-12-18T12:12:34;54.17;;;22.77;;
549;SDS011;20066;48.764;9.176;2022-12-18T12:15:17;57.20;;;22.20;;
549;SDS011;20066;48.764;9.176;2022-12-18T12:17:54;55.50;;;23.17;;
549;SDS011;20066;48.764;9.176;2022-12-18T12:20:39;53.90;;;25.58;;
549;SDS011;20066;48.764;9.176;2022-12-18T12:23:15;54.97;;;23.20;;
549;SDS011;20066;48.764;9.176;2022-12-18T12:25:55;54.38;;;23.05;;
549;SDS011;20066;48.764;9.176;2022-12-18T12:28:35;58.38;;;25.65;;
549;SDS011;20066;48.764;9.176;2022-12-18T12:31:13;57.47;;;22.92;;
549;SDS011;20066;48.764;9.176;2022-12-18T12:33:51;56.33;;;23.42;;
549;SDS011;20066;48.764;9.176;2022-12-18T12:36:32;48.90;;;21.08;;
549;SDS011;20066;48.764;9.176;2022-12-18T12:39:09;56.65;;;24.75;;
549;SDS011;20066;48.764;9.176;2022-12-18T12:41:41;60.28;;;24.98;;
549;SDS011;20066;48.764;9.176;2022-12-18T12:44:30;58.78;;;23.85;;
549;SDS011;20066;48.764;9.176;2022-12-18T12:47:04;52.70;;;22.02;;
549;SDS011;20066;48.764;9.176;2022-12-18T12:49:47;55.33;;;23.45;;
549;SDS011;20066;48.764;9.176;2022-12-18T12:52:21;50.72;;;23.23;;
549;SDS011;20066;48.764;9.176;2022-12-18T12:54:55;54.45;;;23.25;;
549;SDS011;20066;48.764;9.176;2022-12-18T12:57:26;52.90;;;23.30;;
549;SDS011;20066;48.764;9.176;2022-12-18T13:00:02;56.15;;;23.42;;
549;SDS011;20066;48.764;9.176;2022-12-18T13:02:33;52.63;;;21.65;;
549;SDS011;20066;48.764;9.176;2022-12-18T13:05:09;54.90;;;21.67;;
549;SDS011;20066;48.764;9.176;2022-12-18T13:07:50;52.72;;;23.35;;
549;SDS011;20066;48.764;9.176;2022-12-18T13:10:24;53.78;;;21.63;;
549;SDS011;20066;48.764;9.176;2022-12-18T13:12:55;56.95;;;24.60;;
549;SDS011;20066;48.764;9.176;2022-12-18T13:15:24;49.58;;;19.67;;
549;SDS011;20066;48.764;9.176;2022-12-18T13:18:04;47.00;;;21.02;;
549;SDS011;20066;48.764;9.176;2022-12-18T13:20:40;58.08;;;22.25;;
549;SDS011;20066;48.764;9.176;2022-12-18T13:23:25;54.85;;;22.25;;
549;SDS011;20066;48.764;9.176;2022-12-18T13:25:56;53.45;;;20.67;;
549;SDS011;20066;48.764;9.176;2022-12-18T13:28:49;51.17;;;20.67;;
549;SDS011;20066;48.764;9.176;2022-12-18T13:34:31;63.67;;;24.70;;
549;SDS011;20066;48.764;9.176;2022-12-18T13:40:11;54.75;;;20.92;;
549;SDS011;20066;48.764;9.176;2022-12-18T13:43:22;56.10;;;19.88;;
549;SDS011;20066;48.764;9.176;2022-12-18T13:45:59;58.25;;;22.48;;
549;SDS011;20066;48.764;9.176;2022-12-18T13:48:31;54.17;;;22.15;;
549;SDS011;20066;48.764;9.176;2022-12-18T13:51:02;53.38;;;21.20;;
549;SDS011;20066;48.764;9.176;2022-12-18T13:53:36;55.50;;;22.10;;
549;SDS011;20066;48.764;9.176;2022-12-18T13:56:11;58.70;;;22.45;;
549;SDS011;20066;48.764;9.176;2022-12-18T13:58:43;55.00;;;22.60;;
549;SDS011;20066;48.764;9.176;2022-12-18T14:01:21;51.28;;;20.83;;
549;SDS011;20066;48.764;9.176;2022-12-18T14:03:49;62.40;;;23.98;;
549;SDS011;20066;48.764;9.176;2022-12-18T14:06:17;55.85;;;23.75;;
549;SDS011;20066;48.764;9.176;2022-12-18T14:08:45;54.50;;;22.73;;
549;SDS011;20066;48.764;9.176;2022-12-18T14:11:19;55.50;;;22.92;;
549;SDS011;20066;48.764;9.176;2022-12-18T14:13:51;59.65;;;23.75;;
549;SDS011;20066;48.764;9.176;2022-12-18T14:16:19;54.13;;;22.77;;
549;SDS011;20066;48.764;9.176;2022-12-18T14:18:48;63.30;;;23.98;;
549;SDS011;20066;48.764;9.176;2022-12-18T14:21:26;62.83;;;24.58;;
549;SDS011;20066;48.764;9.176;2022-12-18T14:24:05;67.35;;;24.13;;
549;SDS011;20066;48.764;9.176;2022-12-18T14:26:41;65.10;;;26.00;;
549;SDS011;20066;48.764;9.176;2022-12-18T14:29:20;61.75;;;25.13;;
549;SDS011;20066;48.764;9.176;2022-12-18T14:32:06;61.08;;;26.52;;
549;SDS011;20066;48.764;9.176;2022-12-18T14:34:43;58.55;;;23.63;;
549;SDS011;20066;48.764;9.176;2022-12-18T14:37:12;66.57;;;25.63;;
549;SDS011;20066;48.764;9.176;2022-12-18T14:39:40;59.15;;;24.98;;
549;SDS011;20066;48.764;9.176;2022-12-18T14:42:21;65.60;;;27.98;;
549;SDS011;20066;48.764;9.176;2022-12-18T14:44:49;63.45;;;26.90;;
549;SDS011;20066;48.764;9.176;2022-12-18T14:47:36;62.38;;;25.67;;
549;SDS011;20066;48.764;9.176;2022-12-18T14:50:11;69.15;;;29.33;;
549;SDS011;20066;48.764;9.176;2022-12-18T14:52:40;64.50;;;28.25;;
549;SDS011;20066;48.764;9.176;2022-12-18T14:55:14;67.07;;;27.77;;
549;SDS011;20066;48.764;9.176;2022-12-18T14:57:44;72.93;;;29.30;;
549;SDS011;20066;48.764;9.176;2022-12-18T15:00:15;65.28;;;29.48;;
549;SDS011;20066;48.764;9.176;2022-12-18T15:02:44;73.65;;;28.42;;
549;SDS011;20066;48.764;9.176;2022-12-18T15:05:17;66.63;;;30.10;;
549;SDS011;20066;48.764;9.176;2022-12-18T15:07:49;72.68;;;29.02;;
549;SDS011;20066;48.764;9.176;2022-12-18T15:10:18;64.20;;;28.13;;
549;SDS011;20066;48.764;9.176;2022-12-18T15:12:49;71.18;;;29.75;;
549;SDS011;20066;48.764;9.176;2022-12-18T15:18:16;68.45;;;31.75;;
549;SDS011;20066;48.764;9.176;2022-12-18T15:20:47;65.63;;;27.33;;
549;SDS011;20066;48.764;9.176;2022-12-18T15:23:17;78.82;;;31.50;;
549;SDS011;20066;48.764;9.176;2022-12-18T15:25:48;66.28;;;30.33;;
549;SDS011;20066;48.764;9.176;2022-12-18T15:28:23;73.47;;;31.35;;